createdAt,value
2018-11-23T00:00:11.005Z,102370.98
2018-11-23T00:01:13.676Z,102366.13
2018-11-23T00:02:16.291Z,102365.66
2018-11-23T00:03:18.932Z,102363.95
2018-11-23T00:04:21.544Z,102359.09
2018-11-23T00:05:24.212Z,102366.13
2018-11-23T00:06:26.828Z,102366.61
2018-11-23T00:07:29.427Z,102370.20
2018-11-23T00:08:32.041Z,102367.55
2018-11-23T00:09:34.638Z,102369.81
2018-11-23T00:10:37.343Z,102364.11
2018-11-23T00:11:39.933Z,102360.97
2018-11-23T00:12:42.584Z,102358.41
2018-11-23T00:13:45.198Z,102363.56
2018-11-23T00:14:47.804Z,102364.02
2018-11-23T00:15:50.395Z,102360.52
2018-11-23T00:16:53.001Z,102365.34
2018-11-23T00:17:55.615Z,102364.02
2018-11-23T00:18:58.232Z,102365.83
2018-11-23T00:20:00.835Z,102369.81
2018-11-23T00:21:03.460Z,102369.81
2018-11-23T00:22:06.121Z,102366.67
2018-11-23T00:23:08.720Z,102367.55
2018-11-23T00:24:11.316Z,102366.77
2018-11-23T00:25:15.330Z,102361.62
2018-11-23T00:26:17.958Z,102366.77
2018-11-23T00:27:20.666Z,102374.74
2018-11-23T00:28:23.280Z,102367.71
2018-11-23T00:29:25.868Z,102365.89
2018-11-23T00:30:29.539Z,102371.21
2018-11-23T00:31:32.158Z,102362.56
2018-11-23T00:32:34.753Z,102366.83
2018-11-23T00:33:37.356Z,102366.83
2018-11-23T00:34:39.952Z,102369.49
2018-11-23T00:35:42.552Z,102369.49
2018-11-23T00:36:45.184Z,102370.37
2018-11-23T00:37:48.295Z,102367.32
2018-11-23T00:38:50.900Z,102370.37
2018-11-23T00:39:53.596Z,102371.31
2018-11-23T00:40:56.216Z,102364.66
2018-11-23T00:41:58.848Z,102372.16
2018-11-23T00:43:01.556Z,102368.16
2018-11-23T00:44:04.644Z,102368.66
2018-11-23T00:45:09.004Z,102366.00
2018-11-23T00:46:11.605Z,102359.41
2018-11-23T00:47:14.272Z,102358.58
2018-11-23T00:48:16.864Z,102358.58
2018-11-23T00:49:19.456Z,102362.07
2018-11-23T00:50:23.116Z,102362.56
2018-11-23T00:51:25.716Z,102360.36
2018-11-23T00:52:28.333Z,102356.86
2018-11-23T00:53:30.934Z,102353.81
2018-11-23T00:54:33.533Z,102355.98
2018-11-23T00:55:36.125Z,102346.77
2018-11-23T00:56:38.720Z,102346.39
2018-11-23T00:57:41.364Z,102346.77
2018-11-23T00:58:43.972Z,102345.45
2018-11-23T00:59:46.568Z,102348.10
2018-11-23T01:00:49.172Z,102352.09
2018-11-23T01:01:57.415Z,102349.05
2018-11-23T01:03:01.168Z,102350.83
2018-11-23T01:04:03.845Z,102357.02
2018-11-23T01:05:06.732Z,102355.69
2018-11-23T01:06:09.329Z,102353.94
2018-11-23T01:07:11.935Z,102352.61
2018-11-23T01:08:14.549Z,102349.56
2018-11-23T01:09:17.179Z,102347.78
2018-11-23T01:10:20.916Z,102347.30
2018-11-23T01:11:23.536Z,102340.65
2018-11-23T01:12:26.138Z,102340.27
2018-11-23T01:13:28.781Z,102336.27
2018-11-23T01:14:31.392Z,102334.56
2018-11-23T01:15:33.989Z,102335.88
2018-11-23T01:16:36.882Z,102330.12
2018-11-23T01:17:39.484Z,102333.61
2018-11-23T01:18:42.105Z,102331.45
2018-11-23T01:19:44.707Z,102327.45
2018-11-23T01:20:47.292Z,102318.61
2018-11-23T01:21:49.968Z,102314.72
2018-11-23T01:22:53.281Z,102316.50
2018-11-23T01:23:55.897Z,102320.88
2018-11-23T01:24:58.508Z,102322.21
2018-11-23T01:26:01.095Z,102313.84
2018-11-23T01:27:03.710Z,102314.72
2018-11-23T01:28:06.328Z,102313.01
2018-11-23T01:29:09.072Z,102316.05
2018-11-23T01:30:20.380Z,102321.37
2018-11-23T01:31:22.996Z,102311.19
2018-11-23T01:32:25.593Z,102313.84
2018-11-23T01:33:28.192Z,102319.65
2018-11-23T01:34:30.823Z,102317.84
2018-11-23T01:35:33.416Z,102316.99
2018-11-23T01:36:36.012Z,102314.79
2018-11-23T01:37:38.688Z,102315.73
2018-11-23T01:38:41.277Z,102316.12
2018-11-23T01:39:43.888Z,102315.67
2018-11-23T01:40:46.485Z,102317.06
2018-11-23T01:41:49.080Z,102317.45
2018-11-23T01:42:52.201Z,102317.94
2018-11-23T01:43:54.845Z,102314.79
2018-11-23T01:44:57.464Z,102315.67
2018-11-23T01:46:00.061Z,102310.80
2018-11-23T01:47:02.684Z,102309.02
2018-11-23T01:48:05.600Z,102306.36
2018-11-23T01:49:08.200Z,102303.22
2018-11-23T01:50:13.968Z,102308.47
2018-11-23T01:51:16.562Z,102308.92
2018-11-23T01:52:19.156Z,102301.89
2018-11-23T01:53:21.759Z,102297.52
2018-11-23T01:54:24.368Z,102300.11
2018-11-23T01:55:27.325Z,102303.16
2018-11-23T01:56:29.932Z,102296.58
2018-11-23T01:57:32.553Z,102297.06
2018-11-23T01:58:35.172Z,102289.93
2018-11-23T01:59:37.808Z,102290.87
2018-11-23T02:00:40.484Z,102293.47
2018-11-23T02:01:43.112Z,102287.27
2018-11-23T02:02:46.202Z,102281.96
2018-11-23T02:03:48.816Z,102282.45
2018-11-23T02:04:51.586Z,102280.63
2018-11-23T02:05:54.209Z,102277.52
2018-11-23T02:06:56.804Z,102280.63
2018-11-23T02:07:59.400Z,102273.15
2018-11-23T02:09:02.084Z,102275.31
2018-11-23T02:10:05.269Z,102279.30
2018-11-23T02:11:07.908Z,102271.33
2018-11-23T02:12:10.489Z,102270.00
2018-11-23T02:13:13.091Z,102272.66
2018-11-23T02:14:15.688Z,102272.66
2018-11-23T02:15:19.524Z,102273.05
2018-11-23T02:16:22.125Z,102268.22
2018-11-23T02:17:24.712Z,102262.42
2018-11-23T02:18:27.340Z,102263.74
2018-11-23T02:19:29.953Z,102265.00
2018-11-23T02:20:32.557Z,102229.41
2018-11-23T02:21:35.160Z,102252.17
2018-11-23T02:22:37.768Z,102251.33
2018-11-23T02:23:40.354Z,102247.25
2018-11-23T02:24:42.992Z,102253.89
2018-11-23T02:25:45.589Z,102248.58
2018-11-23T02:26:48.184Z,102245.46
2018-11-23T02:27:50.942Z,102243.26
2018-11-23T02:28:53.536Z,102248.96
2018-11-23T02:29:56.140Z,102245.39
2018-11-23T02:31:03.247Z,102244.06
2018-11-23T02:32:05.883Z,102244.52
2018-11-23T02:33:08.492Z,102241.80
2018-11-23T02:34:11.109Z,102243.58
2018-11-23T02:35:14.474Z,102239.59
2018-11-23T02:36:17.070Z,102239.20
2018-11-23T02:37:19.669Z,102239.59
2018-11-23T02:38:22.268Z,102228.12
2018-11-23T02:39:24.888Z,102231.16
2018-11-23T02:40:27.476Z,102236.09
2018-11-23T02:41:30.076Z,102233.89
2018-11-23T02:42:32.697Z,102235.15
2018-11-23T02:43:35.293Z,102224.97
2018-11-23T02:44:37.901Z,102230.78
2018-11-23T02:45:40.518Z,102232.95
2018-11-23T02:46:43.104Z,102233.44
2018-11-23T02:47:46.386Z,102234.66
2018-11-23T02:48:48.980Z,102236.48
2018-11-23T02:49:51.568Z,102235.15
2018-11-23T02:50:54.156Z,102231.16
2018-11-23T02:51:56.766Z,102235.15
2018-11-23T02:52:59.364Z,102232.49
2018-11-23T02:54:02.053Z,102240.47
2018-11-23T02:55:05.363Z,102235.53
2018-11-23T02:56:07.973Z,102239.14
2018-11-23T02:57:10.560Z,102233.82
2018-11-23T02:58:13.152Z,102243.13
2018-11-23T02:59:15.764Z,102243.97
2018-11-23T03:00:19.762Z,102235.99
2018-11-23T03:01:22.345Z,102236.48
2018-11-23T03:02:24.954Z,102230.67
2018-11-23T03:03:27.549Z,102230.67
2018-11-23T03:04:30.188Z,102226.69
2018-11-23T03:05:32.772Z,102228.41
2018-11-23T03:06:35.732Z,102228.80
2018-11-23T03:07:38.384Z,102224.73
2018-11-23T03:08:41.006Z,102227.30
2018-11-23T03:09:43.599Z,102226.73
2018-11-23T03:10:46.209Z,102227.05
2018-11-23T03:11:48.808Z,102228.77
2018-11-23T03:12:51.420Z,102227.72
2018-11-23T03:13:54.012Z,102228.98
2018-11-23T03:14:56.633Z,102227.09
2018-11-23T03:15:59.233Z,102227.48
2018-11-23T03:17:01.816Z,102230.52
2018-11-23T03:18:04.560Z,102227.87
2018-11-23T03:19:08.293Z,102230.45
2018-11-23T03:20:14.308Z,102222.94
2018-11-23T03:21:16.929Z,102223.32
2018-11-23T03:22:19.568Z,102229.02
2018-11-23T03:23:22.160Z,102227.31
2018-11-23T03:24:24.756Z,102220.20
2018-11-23T03:25:27.352Z,102221.98
2018-11-23T03:26:29.960Z,102220.59
2018-11-23T03:27:32.552Z,102222.38
2018-11-23T03:28:35.144Z,102217.55
2018-11-23T03:29:37.752Z,102215.73
2018-11-23T03:30:40.559Z,102219.72
2018-11-23T03:31:43.260Z,102218.88
2018-11-23T03:32:46.812Z,102213.56
2018-11-23T03:33:49.425Z,102216.22
2018-11-23T03:34:52.020Z,102210.91
2018-11-23T03:35:54.608Z,102211.74
2018-11-23T03:36:57.207Z,102212.23
2018-11-23T03:37:59.808Z,102209.19
2018-11-23T03:39:02.585Z,102203.00
2018-11-23T03:40:05.339Z,102196.35
2018-11-23T03:41:07.937Z,102194.14
2018-11-23T03:42:10.532Z,102181.73
2018-11-23T03:43:13.124Z,102183.44
2018-11-23T03:44:15.727Z,102180.86
2018-11-23T03:45:18.348Z,102174.31
2018-11-23T03:46:20.924Z,102177.28
2018-11-23T03:47:23.518Z,102172.42
2018-11-23T03:48:26.104Z,102172.81
2018-11-23T03:49:28.740Z,102171.09
2018-11-23T03:50:31.342Z,102172.87
2018-11-23T03:51:33.945Z,102172.42
2018-11-23T03:52:36.575Z,102169.77
2018-11-23T03:53:39.184Z,102171.55
2018-11-23T03:54:41.809Z,102169.77
2018-11-23T03:55:44.412Z,102167.56
2018-11-23T03:56:47.009Z,102164.45
2018-11-23T03:57:49.624Z,102165.39
2018-11-23T03:58:52.212Z,102173.75
2018-11-23T03:59:54.860Z,102161.41
2018-11-23T04:00:57.488Z,102162.73
2018-11-23T04:02:00.132Z,102158.75
2018-11-23T04:03:02.745Z,102153.43
2018-11-23T04:04:05.555Z,102154.76
2018-11-23T04:05:08.368Z,102149.90
2018-11-23T04:06:11.005Z,102152.10
2018-11-23T04:07:13.596Z,102150.28
2018-11-23T04:08:16.201Z,102144.12
2018-11-23T04:09:18.784Z,102144.52
2018-11-23T04:10:21.403Z,102137.48
2018-11-23T04:11:24.027Z,102145.07
2018-11-23T04:12:26.677Z,102137.48
2018-11-23T04:13:29.263Z,102139.27
2018-11-23T04:14:31.868Z,102136.15
2018-11-23T04:15:34.468Z,102137.09
2018-11-23T04:16:37.061Z,102131.84
2018-11-23T04:17:40.312Z,102135.37
2018-11-23T04:18:42.930Z,102134.05
2018-11-23T04:19:45.524Z,102144.69
2018-11-23T04:20:52.676Z,102143.81
2018-11-23T04:21:55.284Z,102137.17
2018-11-23T04:22:57.928Z,102141.64
2018-11-23T04:24:00.537Z,102138.60
2018-11-23T04:25:03.265Z,102141.26
2018-11-23T04:26:05.912Z,102141.26
2018-11-23T04:27:08.504Z,102138.60
2018-11-23T04:28:11.105Z,102139.92
2018-11-23T04:29:13.696Z,102135.07
2018-11-23T04:30:17.154Z,102132.91
2018-11-23T04:31:19.739Z,102135.94
2018-11-23T04:32:22.488Z,102132.91
2018-11-23T04:33:25.547Z,102133.73
2018-11-23T04:34:28.136Z,102131.57
2018-11-23T04:35:30.763Z,102128.53
2018-11-23T04:36:33.372Z,102126.33
2018-11-23T04:37:36.065Z,102119.22
2018-11-23T04:38:38.652Z,102120.17
2018-11-23T04:39:41.450Z,102121.95
2018-11-23T04:40:44.066Z,102114.85
2018-11-23T04:41:46.711Z,102113.14
2018-11-23T04:42:49.304Z,102108.77
2018-11-23T04:43:51.944Z,102121.11
2018-11-23T04:44:54.520Z,102120.23
2018-11-23T04:45:57.120Z,102114.08
2018-11-23T04:46:59.712Z,102110.55
2018-11-23T04:48:02.322Z,102108.84
2018-11-23T04:49:05.376Z,102111.05
2018-11-23T04:50:09.728Z,102115.03
2018-11-23T04:51:12.344Z,102113.31
2018-11-23T04:52:14.961Z,102117.76
2018-11-23T04:53:17.608Z,102117.76
2018-11-23T04:54:20.204Z,102115.97
2018-11-23T04:55:22.796Z,102118.70
2018-11-23T04:56:25.380Z,102122.69
2018-11-23T04:57:27.984Z,102117.76
2018-11-23T04:58:30.680Z,102111.60
2018-11-23T04:59:33.313Z,102114.72
2018-11-23T05:00:35.961Z,102116.92
2018-11-23T05:01:38.552Z,102112.55
2018-11-23T05:02:41.484Z,102107.62
2018-11-23T05:03:44.218Z,102108.95
2018-11-23T05:04:46.808Z,102105.91
2018-11-23T05:05:49.400Z,102102.86
2018-11-23T05:06:52.001Z,102098.88
2018-11-23T05:07:54.595Z,102104.58
2018-11-23T05:08:57.280Z,102103.70
2018-11-23T05:09:59.868Z,102100.20
2018-11-23T05:11:02.465Z,102105.03
2018-11-23T05:12:05.168Z,102101.98
2018-11-23T05:13:07.785Z,102102.86
2018-11-23T05:14:10.492Z,102108.63
2018-11-23T05:15:14.388Z,102111.78
2018-11-23T05:16:16.977Z,102107.80
2018-11-23T05:17:19.572Z,102104.19
2018-11-23T05:18:22.193Z,102107.30
2018-11-23T05:19:24.839Z,102103.31
2018-11-23T05:20:27.452Z,102106.47
2018-11-23T05:21:30.041Z,102113.49
2018-11-23T05:22:32.628Z,102107.30
2018-11-23T05:23:35.232Z,102108.25
2018-11-23T05:24:37.864Z,102102.86
2018-11-23T05:25:40.468Z,102099.33
2018-11-23T05:26:43.053Z,102101.15
2018-11-23T05:27:45.653Z,102094.50
2018-11-23T05:28:48.236Z,102094.12
2018-11-23T05:29:51.046Z,102099.82
2018-11-23T05:30:53.640Z,102101.15
2018-11-23T05:31:56.241Z,102102.09
2018-11-23T05:32:58.839Z,102096.78
2018-11-23T05:34:01.428Z,102097.62
2018-11-23T05:35:04.480Z,102100.77
2018-11-23T05:36:07.088Z,102095.45
2018-11-23T05:37:09.692Z,102098.00
2018-11-23T05:38:12.280Z,102098.48
2018-11-23T05:39:14.892Z,102086.04
2018-11-23T05:40:18.877Z,102090.13
2018-11-23T05:41:21.726Z,102090.52
2018-11-23T05:42:24.327Z,102086.98
2018-11-23T05:43:26.920Z,102089.19
2018-11-23T05:44:29.508Z,102087.86
2018-11-23T05:45:32.168Z,102078.17
2018-11-23T05:46:34.885Z,102076.36
2018-11-23T05:47:37.505Z,102077.23
2018-11-23T05:48:40.100Z,102073.24
2018-11-23T05:49:42.704Z,102069.25
2018-11-23T05:50:45.320Z,102072.30
2018-11-23T05:51:47.920Z,102071.42
2018-11-23T05:52:50.703Z,102072.30
2018-11-23T05:53:53.309Z,102070.97
2018-11-23T05:54:55.909Z,102071.91
2018-11-23T05:55:58.500Z,102068.31
2018-11-23T05:57:01.096Z,102068.77
2018-11-23T05:58:03.693Z,102070.97
2018-11-23T05:59:06.315Z,102073.63
2018-11-23T06:00:12.976Z,102067.82
2018-11-23T06:01:15.609Z,102065.16
2018-11-23T06:02:18.197Z,102066.49
2018-11-23T06:03:20.870Z,102066.49
2018-11-23T06:04:23.468Z,102069.53
2018-11-23T06:05:26.091Z,102062.44
2018-11-23T06:06:28.720Z,102060.72
2018-11-23T06:07:31.320Z,102055.79
2018-11-23T06:08:33.976Z,102055.41
2018-11-23T06:09:36.588Z,102058.91
2018-11-23T06:10:39.180Z,102053.20
2018-11-23T06:11:41.832Z,102052.36
2018-11-23T06:12:44.578Z,102058.06
2018-11-23T06:13:47.184Z,102058.91
2018-11-23T06:14:49.790Z,102065.55
2018-11-23T06:15:52.392Z,102074.02
2018-11-23T06:16:55.005Z,102074.39
2018-11-23T06:17:57.610Z,102073.06
2018-11-23T06:19:00.207Z,102070.41
2018-11-23T06:20:02.860Z,102057.95
2018-11-23T06:21:05.560Z,102056.17
2018-11-23T06:22:08.207Z,102054.36
2018-11-23T06:23:10.808Z,102057.39
2018-11-23T06:24:13.409Z,102060.92
2018-11-23T06:25:21.580Z,102048.97
2018-11-23T06:26:25.824Z,102053.79
2018-11-23T06:27:28.440Z,102052.84
2018-11-23T06:28:31.028Z,102063.02
2018-11-23T06:29:33.631Z,102063.02
2018-11-23T06:30:36.228Z,102061.69
2018-11-23T06:31:38.824Z,102055.99
2018-11-23T06:32:52.620Z,102062.08
2018-11-23T06:33:55.232Z,102064.34
2018-11-23T06:34:57.818Z,102063.41
2018-11-23T06:36:00.404Z,102060.74
2018-11-23T06:37:03.006Z,102058.47
2018-11-23T06:38:05.642Z,102054.55
2018-11-23T06:39:08.928Z,102055.05
2018-11-23T06:40:11.549Z,102062.08
2018-11-23T06:41:14.157Z,102059.88
2018-11-23T06:42:16.753Z,102054.17
2018-11-23T06:43:19.462Z,102065.19
2018-11-23T06:44:31.704Z,102067.47
2018-11-23T06:45:38.214Z,102066.63
2018-11-23T06:46:40.808Z,102064.81
2018-11-23T06:47:43.406Z,102065.75
2018-11-23T06:48:45.997Z,102061.69
2018-11-23T06:49:48.576Z,102056.94
2018-11-23T06:50:51.257Z,102054.28
2018-11-23T06:51:53.843Z,102055.99
2018-11-23T06:52:56.442Z,102058.27
2018-11-23T06:53:59.061Z,102063.97
2018-11-23T06:55:01.696Z,102048.97
2018-11-23T06:56:04.808Z,102048.58
2018-11-23T06:57:07.412Z,102058.66
2018-11-23T06:58:10.053Z,102056.94
2018-11-23T06:59:12.657Z,102050.75
2018-11-23T07:00:16.039Z,102059.59
2018-11-23T07:01:18.672Z,102052.95
2018-11-23T07:02:21.488Z,102045.92
2018-11-23T07:03:24.176Z,102058.27
2018-11-23T07:04:26.784Z,102052.56
2018-11-23T07:05:29.388Z,102052.95
2018-11-23T07:06:32.001Z,102056.55
2018-11-23T07:07:35.747Z,102052.56
2018-11-23T07:08:37.508Z,102059.59
2018-11-23T07:09:40.369Z,102054.73
2018-11-23T07:10:42.984Z,102061.00
2018-11-23T07:11:45.592Z,102055.22
2018-11-23T07:12:48.231Z,102060.92
2018-11-23T07:13:50.864Z,102060.55
2018-11-23T07:14:53.592Z,102043.56
2018-11-23T07:15:56.200Z,102064.53
2018-11-23T07:16:58.788Z,102065.86
2018-11-23T07:18:01.385Z,102068.13
2018-11-23T07:19:04.056Z,102063.66
2018-11-23T07:20:08.469Z,102064.14
2018-11-23T07:21:11.097Z,102064.14
2018-11-23T07:22:13.713Z,102062.44
2018-11-23T07:23:16.292Z,102065.09
2018-11-23T07:24:18.900Z,102060.61
2018-11-23T07:25:21.503Z,102066.42
2018-11-23T07:26:24.092Z,102062.44
2018-11-23T07:27:26.696Z,102057.19
2018-11-23T07:28:29.285Z,102054.91
2018-11-23T07:29:31.888Z,102051.88
2018-11-23T07:30:34.504Z,102051.42
2018-11-23T07:31:37.141Z,102046.10
2018-11-23T07:32:39.784Z,102039.45
2018-11-23T07:33:42.392Z,102041.73
2018-11-23T07:34:44.976Z,102040.41
2018-11-23T07:35:47.625Z,102040.41
2018-11-23T07:36:50.205Z,102016.41
2018-11-23T07:37:52.885Z,102032.50
2018-11-23T07:38:55.518Z,102035.09
2018-11-23T07:40:09.336Z,102030.23
2018-11-23T07:41:23.072Z,102027.11
2018-11-23T07:42:27.454Z,102028.45
2018-11-23T07:43:30.048Z,102033.76
2018-11-23T07:44:32.652Z,102032.05
2018-11-23T07:45:35.473Z,102028.45
2018-11-23T07:46:38.100Z,102028.90
2018-11-23T07:47:40.708Z,102031.48
2018-11-23T07:48:43.340Z,102026.63
2018-11-23T07:49:46.384Z,102022.19
2018-11-23T07:50:48.983Z,102029.10
2018-11-23T07:51:51.588Z,102026.06
2018-11-23T07:54:09.112Z,102020.29
2018-11-23T07:55:12.300Z,102020.67
2018-11-23T07:56:14.950Z,102022.77
2018-11-23T07:57:17.552Z,102017.06
2018-11-23T07:58:20.152Z,102027.70
2018-11-23T07:59:22.757Z,102016.96
2018-11-23T08:00:26.044Z,102024.48
2018-11-23T08:01:28.639Z,102028.36
2018-11-23T08:02:31.249Z,102023.16
2018-11-23T08:03:33.860Z,102022.66
2018-11-23T08:04:37.268Z,102026.19
2018-11-23T08:05:39.871Z,102020.88
2018-11-23T08:06:42.558Z,102020.88
2018-11-23T08:07:45.212Z,102022.20
2018-11-23T08:08:47.812Z,102024.38
2018-11-23T08:09:50.440Z,102026.95
2018-11-23T08:10:52.445Z,102022.97
2018-11-23T08:11:55.112Z,102021.64
2018-11-23T08:12:57.717Z,102023.35
2018-11-23T08:14:00.317Z,102018.03
2018-11-23T08:15:03.008Z,102015.38
2018-11-23T08:16:05.853Z,102015.76
2018-11-23T08:17:09.288Z,102007.40
2018-11-23T08:18:11.916Z,102013.94
2018-11-23T08:19:14.680Z,102013.48
2018-11-23T08:20:18.469Z,102004.63
2018-11-23T08:21:21.101Z,102011.77
2018-11-23T08:22:23.700Z,102010.83
2018-11-23T08:23:26.315Z,102011.28
2018-11-23T08:24:28.904Z,102015.65
2018-11-23T08:25:31.508Z,102011.20
2018-11-23T08:26:34.104Z,102006.34
2018-11-23T08:27:36.871Z,102011.59
2018-11-23T08:28:39.462Z,102012.05
2018-11-23T08:29:42.056Z,102016.52
2018-11-23T08:30:44.680Z,102012.99
2018-11-23T08:31:47.279Z,102014.70
2018-11-23T08:32:49.916Z,102020.02
2018-11-23T08:33:52.912Z,102024.88
2018-11-23T08:34:55.500Z,102034.11
2018-11-23T08:35:58.096Z,102029.25
2018-11-23T08:37:00.688Z,102024.42
2018-11-23T08:38:03.294Z,102022.98
2018-11-23T08:39:07.734Z,102020.33
2018-11-23T08:40:17.012Z,102019.38
2018-11-23T08:41:19.652Z,102018.55
2018-11-23T08:42:22.249Z,102015.88
2018-11-23T08:43:24.860Z,102010.08
2018-11-23T08:44:27.464Z,102020.71
2018-11-23T08:45:30.086Z,102021.66
2018-11-23T08:46:32.681Z,102020.33
2018-11-23T08:47:35.443Z,102013.61
2018-11-23T08:48:38.039Z,102013.61
2018-11-23T08:49:40.644Z,102017.59
2018-11-23T08:50:43.264Z,102015.39
2018-11-23T08:51:45.864Z,102010.46
2018-11-23T08:52:48.460Z,102007.80
2018-11-23T08:53:51.080Z,102016.65
2018-11-23T08:54:53.681Z,102012.17
2018-11-23T08:55:56.319Z,102006.02
2018-11-23T08:56:58.908Z,102007.34
2018-11-23T08:58:01.510Z,102010.84
2018-11-23T08:59:04.144Z,102009.52
2018-11-23T09:00:13.112Z,102014.83
2018-11-23T09:01:15.709Z,102007.72
2018-11-23T09:02:18.321Z,102004.58
2018-11-23T09:03:20.908Z,101994.89
2018-11-23T09:04:23.524Z,101994.89
2018-11-23T09:05:26.172Z,101994.43
2018-11-23T09:06:28.785Z,101993.56
2018-11-23T09:07:31.400Z,101998.88
2018-11-23T09:08:34.069Z,101993.56
2018-11-23T09:09:36.673Z,101991.77
2018-11-23T09:10:39.272Z,101998.80
2018-11-23T09:11:41.880Z,101997.93
2018-11-23T09:12:46.143Z,101999.75
2018-11-23T09:13:48.749Z,101996.14
2018-11-23T09:14:51.347Z,102000.13
2018-11-23T09:15:54.026Z,101996.14
2018-11-23T09:16:56.640Z,102004.01
2018-11-23T09:17:59.252Z,101997.47
2018-11-23T09:19:02.965Z,101995.66
2018-11-23T09:20:07.160Z,101993.87
2018-11-23T09:21:10.700Z,101990.72
2018-11-23T09:22:13.363Z,101995.19
2018-11-23T09:23:16.006Z,101998.69
2018-11-23T09:24:18.626Z,101987.22
2018-11-23T09:25:22.087Z,101987.22
2018-11-23T09:26:24.741Z,101985.89
2018-11-23T09:27:27.339Z,101984.07
2018-11-23T09:28:29.948Z,101982.73
2018-11-23T09:29:33.144Z,101981.41
2018-11-23T09:30:35.768Z,101978.75
2018-11-23T09:31:38.368Z,101976.09
2018-11-23T09:32:41.162Z,101978.75
2018-11-23T09:33:43.780Z,101976.09
2018-11-23T09:34:46.488Z,101987.11
2018-11-23T09:35:49.100Z,101983.13
2018-11-23T09:36:51.708Z,101981.80
2018-11-23T09:37:54.353Z,101984.83
2018-11-23T09:38:56.949Z,101982.66
2018-11-23T09:39:59.524Z,101984.45
2018-11-23T09:41:02.145Z,101984.83
2018-11-23T09:42:05.562Z,101989.70
2018-11-23T09:43:08.192Z,101946.45
2018-11-23T09:44:10.836Z,101979.05
2018-11-23T09:45:19.645Z,101985.22
2018-11-23T09:46:22.244Z,101987.03
2018-11-23T09:47:24.896Z,101982.55
2018-11-23T09:48:27.492Z,101987.80
2018-11-23T09:49:30.086Z,101982.55
2018-11-23T09:50:32.745Z,101983.42
2018-11-23T09:51:35.360Z,101976.78
2018-11-23T09:52:38.010Z,101982.94
2018-11-23T09:53:40.624Z,101970.59
2018-11-23T09:54:43.230Z,101976.29
2018-11-23T09:55:45.844Z,101980.28
2018-11-23T09:56:48.460Z,101979.82
2018-11-23T09:57:51.160Z,101971.35
2018-11-23T09:58:53.756Z,101977.62
2018-11-23T09:59:56.366Z,101970.13
2018-11-23T10:00:59.001Z,101971.35
2018-11-23T10:02:01.634Z,101966.91
2018-11-23T10:03:04.921Z,101974.88
2018-11-23T10:04:07.573Z,101967.36
2018-11-23T10:05:11.188Z,101974.39
2018-11-23T10:06:13.822Z,101973.94
2018-11-23T10:07:16.416Z,101973.45
2018-11-23T10:08:19.008Z,101968.62
2018-11-23T10:09:21.600Z,101972.61
2018-11-23T10:10:24.944Z,101972.61
2018-11-23T10:11:27.544Z,101972.11
2018-11-23T10:12:30.168Z,101970.41
2018-11-23T10:13:32.808Z,101966.34
2018-11-23T10:14:35.424Z,101967.29
2018-11-23T10:15:38.021Z,101962.73
2018-11-23T10:16:40.624Z,101961.97
2018-11-23T10:17:43.280Z,101965.47
2018-11-23T10:18:45.900Z,101961.86
2018-11-23T10:19:48.572Z,101961.86
2018-11-23T10:20:51.157Z,101972.87
2018-11-23T10:21:53.748Z,101970.59
2018-11-23T10:22:56.585Z,101967.56
2018-11-23T10:23:59.205Z,101966.72
2018-11-23T10:25:01.809Z,101974.20
2018-11-23T10:26:04.528Z,101971.55
2018-11-23T10:27:07.142Z,101958.74
2018-11-23T10:28:09.760Z,101960.91
2018-11-23T10:29:12.340Z,101953.81
2018-11-23T10:30:17.852Z,101957.30
2018-11-23T10:31:20.452Z,101959.96
2018-11-23T10:32:23.046Z,101959.96
2018-11-23T10:33:28.357Z,101955.52
2018-11-23T10:34:28.310Z,101953.31
2018-11-23T10:35:31.287Z,101950.38
2018-11-23T10:36:33.873Z,101953.31
2018-11-23T10:37:36.585Z,101948.11
2018-11-23T10:38:39.305Z,101946.28
2018-11-23T10:39:41.916Z,101944.58
2018-11-23T10:40:44.546Z,101944.12
2018-11-23T10:41:47.190Z,101941.92
2018-11-23T10:42:50.644Z,101945.91
2018-11-23T10:43:53.235Z,101937.55
2018-11-23T10:44:55.812Z,101938.42
2018-11-23T10:45:58.420Z,101942.41
2018-11-23T10:47:01.026Z,101938.04
2018-11-23T10:48:04.770Z,101939.75
2018-11-23T10:49:07.711Z,101941.53
2018-11-23T10:50:13.084Z,101937.55
2018-11-23T10:51:15.692Z,101945.53
2018-11-23T10:52:18.492Z,101950.84
2018-11-23T10:53:21.079Z,101946.85
2018-11-23T10:54:23.688Z,101958.36
2018-11-23T10:55:28.902Z,101950.84
2018-11-23T10:56:31.631Z,101949.52
2018-11-23T10:57:34.240Z,101950.38
2018-11-23T10:58:36.841Z,101947.73
2018-11-23T10:59:39.880Z,101949.52
2018-11-23T11:00:47.744Z,101944.20
2018-11-23T11:01:55.922Z,101944.69
2018-11-23T11:03:34.701Z,101940.20
2018-11-23T11:04:42.879Z,101939.64
2018-11-23T11:05:51.164Z,101938.87
2018-11-23T11:06:54.940Z,101941.53
2018-11-23T11:07:59.106Z,101935.84
2018-11-23T11:09:01.792Z,101935.45
2018-11-23T11:10:05.352Z,101936.41
2018-11-23T11:11:08.354Z,101941.65
2018-11-23T11:12:10.960Z,101937.66
2018-11-23T11:13:13.554Z,101937.16
2018-11-23T11:14:16.170Z,101935.45
2018-11-23T11:15:18.805Z,101942.03
2018-11-23T11:16:21.486Z,101934.51
2018-11-23T11:17:24.082Z,101938.87
2018-11-23T11:18:26.689Z,101936.14
2018-11-23T11:19:29.309Z,101927.22
2018-11-23T11:20:31.939Z,101930.71
2018-11-23T11:21:34.792Z,101927.97
2018-11-23T11:22:37.836Z,101924.44
2018-11-23T11:23:40.440Z,101920.76
2018-11-23T11:24:43.049Z,101923.42
2018-11-23T11:25:45.652Z,101924.17
2018-11-23T11:26:48.260Z,101925.05
2018-11-23T11:27:50.956Z,101913.46
2018-11-23T11:28:53.556Z,101920.48
2018-11-23T11:29:56.161Z,101912.02
2018-11-23T11:30:58.780Z,101911.07
2018-11-23T11:32:01.374Z,101908.91
2018-11-23T11:33:04.029Z,101909.73
2018-11-23T11:34:06.665Z,101910.61
2018-11-23T11:35:10.215Z,101908.33
2018-11-23T11:36:12.942Z,101906.05
2018-11-23T11:37:15.585Z,101902.90
2018-11-23T11:38:18.230Z,101902.06
2018-11-23T11:39:20.948Z,101901.57
2018-11-23T11:40:23.568Z,101889.98
2018-11-23T11:41:26.174Z,101890.39
2018-11-23T11:42:28.768Z,101894.37
2018-11-23T11:43:31.365Z,101898.37
2018-11-23T11:44:33.952Z,101889.94
2018-11-23T11:45:36.557Z,101889.52
2018-11-23T11:46:39.176Z,101893.92
2018-11-23T11:47:42.460Z,101890.77
2018-11-23T11:48:45.052Z,101895.63
2018-11-23T11:49:47.663Z,101894.76
2018-11-23T11:50:50.272Z,101886.41
2018-11-23T11:51:52.865Z,101895.25
2018-11-23T11:52:55.457Z,101894.30
2018-11-23T11:53:58.053Z,101891.64
2018-11-23T11:55:00.656Z,101890.31
2018-11-23T11:56:03.367Z,101892.48
2018-11-23T11:57:06.012Z,101892.97
2018-11-23T11:58:08.624Z,101888.03
2018-11-23T11:59:11.228Z,101892.41